Sonic Adventure (DX): Overall Rankings

Records: Times | Rings | Scores | Races | Bosses | Freestyle
Leaders: Times | Rings | Scores | Races | Bosses | Freestyle | Overall
Rank Player Percent Points Date
1 Sonicspeedruner 97.9% 354 10-13-18
2 Gamepro011 97.9% 367 10-13-18
3 DarkPolarNight 96.6% 582 10-13-18
4 Jawzun 93.0% 1212 10-13-18
5 Dashjump 91.6% 1472 10-13-18
6 DarkspinesSonic 89.7% 1803 10-13-18
7 Avento128bits 89.5% 1838 10-13-18
8 ike6252 89.3% 1874 10-13-18
9 F-Man 87.5% 2187 10-13-18
10 Coolfansonic 87.0% 2263 10-13-18
11 HyperSonic7701 84.1% 2776 10-13-18
12 TheRealShadnic 83.8% 2826 10-13-18
13 yoshifan 82.4% 3072 10-13-18
14 frankoredstrato 82.0% 3139 10-13-18
15 francisco 81.1% 3301 10-13-18
16 Marth 80.9% 3330 10-13-18
17 InferSaime 79.6% 3566 10-13-18
18 PfoSonic 79.2% 3643 10-13-18
19 Paragod 78.7% 3717 10-13-18
20 THC98 77.9% 3860 10-13-18
21 Stefan 75.5% 4290 10-13-18
22 RPGnutter 73.4% 4653 10-13-18
23 bertin 73.3% 4678 10-13-18
24 sonicam 71.1% 5052 10-13-18
25 Dekuboy 70.2% 5212 10-13-18
26 drminus 69.9% 5267 10-13-18
27 chainchumper 65.8% 5983 10-13-18
28 xXMegaManXx 65.6% 6016 10-13-18
29 Combo 65.2% 6089 10-13-18
30 chaos shadow 64.6% 6196 10-13-18
31 SkyLights 64.0% 6292 10-13-18
32 Diamond 62.0% 6649 10-13-18
33 Auriman1 59.8% 7028 10-13-18
34 GerbilSoft 59.8% 7033 10-13-18
35 OmegaDJ 59.8% 7034 10-13-18
36 magnum12 59.0% 7174 10-13-18
37 Thorn 56.8% 7554 10-13-18
38 P1 Pause 56.7% 7588 10-13-18
39 mike89 55.6% 7765 10-13-18
40 Dave Cramer 53.7% 8110 10-13-18
41 Groudon199 53.6% 8119 10-13-18
42 Parax 53.1% 8210 10-13-18
43 Shadow Jacky 52.5% 8319 10-13-18
44 Psymar 47.5% 9188 10-13-18
45 Arch 46.6% 9350 10-13-18
46 Chao_Fan 45.7% 9503 10-13-18
47 mauserman 45.0% 9633 10-13-18
48 Quartz 44.6% 9696 10-13-18
49 teamblackarms 43.8% 9833 10-13-18
50 Calfd 43.4% 9915 10-13-18
51 Psyknux 43.1% 9956 10-13-18
52 James_Bertolli 42.9% 10002 10-13-18
53 Cyan Ryan 42.7% 10041 10-13-18
54 NintenDan 42.4% 10081 10-13-18
55 Webber3000 41.8% 10188 10-13-18
56 Turbos 41.7% 10202 10-13-18
57 Ring Rush 41.6% 10229 10-13-18
58 Cream147 41.3% 10277 10-13-18
59 Fr3nZy 41.3% 10286 10-13-18
60 videogamemaster777 41.2% 10292 10-13-18
61 Siavash Tazari 41.0% 10335 10-13-18
62 buddychaos0415 40.4% 10428 10-13-18
63 SadisticMystic 40.0% 10511 10-13-18
64 ethmar 39.8% 10549 10-13-18
65 eggFL 39.1% 10660 10-13-18
66 SB737 37.6% 10927 10-13-18
67 supersonic465 37.0% 11027 10-13-18
68 supersonicfan 36.4% 11136 10-13-18
69 FuzZerd 35.3% 11324 10-13-18
70 Aitamen 34.8% 11409 10-13-18
71 elecmouse101 34.4% 11486 10-13-18
72 BigAL49 34.4% 11495 10-13-18
73 danieldude 34.3% 11503 10-13-18
74 Austinf 33.6% 11620 10-13-18
75 metanightmare22 33.2% 11704 10-13-18
76 dabestgamer 32.7% 11780 10-13-18
77 MiStEr_ShAoLiN 32.6% 11801 10-13-18
78 Andrea Ritsu 31.9% 11929 10-13-18
79 itsPersonnal 31.6% 11975 10-13-18
80 Cybrax 31.0% 12091 10-13-18
81 JamminX42 30.7% 12136 10-13-18
82 Nim 30.7% 12142 10-13-18
83 SilvertheAlmighty 30.5% 12163 10-13-18
84 Mastakirby 30.3% 12203 10-13-18
85 VMU Player Banned 28.9% 12449 10-13-18
86 Omega Rafael Santos 28.4% 12532 10-13-18
87 Staf 28.2% 12567 10-13-18
88 The T 27.9% 12624 10-13-18
89 EngiNerd 27.6% 12673 10-13-18
90 lordmetalsonic 27.1% 12761 10-13-18
91 Hipertails12 26.9% 12810 10-13-18
92 welldooder64 26.6% 12848 10-13-18
93 GreatStar 26.4% 12891 10-13-18
94 Niczur 26.2% 12917 10-13-18
95 The Great Lord Mick 26.2% 12920 10-13-18
96 Sondow 26.2% 12926 10-13-18
97 LinksDarkArrows 25.9% 12980 10-13-18
98 Skylace 25.1% 13125 10-13-18
99 a_moustache 24.1% 13288 10-13-18
100 Rolken 23.5% 13393 10-13-18
101 Xia 21.9% 13677 10-13-18
102 Spinballwizard 21.9% 13687 10-13-18
103 Kogen Player Banned 21.8% 13690 10-13-18
104 Twilisailor 21.4% 13762 10-13-18
105 f0rever_zer0 21.3% 13777 10-13-18
106 Don 21.3% 13783 10-13-18
107 Cutiefox 21.2% 13800 10-13-18
108 Game_Complete 21.2% 13801 10-13-18
109 Miles9999 21.1% 13825 10-13-18
110 andres430 20.5% 13921 10-13-18
111 Cruizer 20.3% 13950 10-13-18
112 iSonicKid2K 20.2% 13974 10-13-18
113 SADXTryHard 20.0% 14008 10-13-18
114 GarnetPrincess 19.5% 14097 10-13-18
115 N 19.3% 14132 10-13-18
116 AxlThunder 19.0% 14191 10-13-18
117 knuckles_sonic8 18.5% 14280 10-13-18
118 KinkyCadence 18.2% 14333 10-13-18
119 The Knuckles Chao 18.1% 14341 10-13-18
120 Termon 17.8% 14395 10-13-18
121 Team_Yoshi 17.8% 14398 10-13-18
122 LittleBigness 17.7% 14413 10-13-18
123 SonicWinDX 17.6% 14434 10-13-18
124 FoxBoy 17.5% 14456 10-13-18
125 CoEmpathy 17.3% 14483 10-13-18
126 Drakodan 16.8% 14569 10-13-18
127 Sonic Singularity 15.8% 14744 10-13-18
128 Pokemonmaster888 15.5% 14798 10-13-18
129 paulie9990 15.1% 14864 10-13-18
130 SilverSonic 14.5% 14974 10-13-18
131 MPit08 14.4% 14998 10-13-18
132 WeegeeZV 14.2% 15033 10-13-18
133 koinu93 14.0% 15059 10-13-18
134 Mo Player Banned 14.0% 15061 10-13-18
135 Cod4Scopes 13.6% 15141 10-13-18
136 HyperSonic64 13.5% 15144 10-13-18
137 booo95 13.4% 15173 10-13-18
138 Chawkk 13.4% 15176 10-13-18
139 Jerzia 13.3% 15183 10-13-18
140 Hunters13 13.1% 15223 10-13-18
141 SuperSonic101 13.0% 15241 10-13-18
142 Maxinfamily 12.9% 15252 10-13-18
143 Kanimayo_Jp 12.6% 15315 10-13-18
144 LilZero 12.5% 15328 10-13-18
145 BrokenArthritis 12.4% 15344 10-13-18
146 Flying Fox 12.3% 15353 10-13-18
146 PsyBorg 12.3% 15353 10-13-18
148 Therio 12.0% 15417 10-13-18
149 sonicspeed 11.8% 15450 10-13-18
150 douglas 11.7% 15464 10-13-18
151 thewaytodawnnn 11.3% 15531 10-13-18
152 Matt_TY 11.3% 15536 10-13-18
153 ModifiedMonkee 11.2% 15561 10-13-18
154 Cooljay 10.8% 15623 10-13-18
155 SuperBlitzCraig 10.7% 15646 10-13-18
156 joecoolgames 10.6% 15653 10-13-18
157 SeaWolf 10.6% 15667 10-13-18
158 videogamer1014 10.4% 15698 10-13-18
159 AC-Tygo 10.1% 15741 10-13-18
160 welshmoose05 10.1% 15748 10-13-18
161 crazy1993 9.9% 15783 10-13-18
162 OddCook 9.9% 15789 10-13-18
163 TFEC Headshot 9.8% 15804 10-13-18
164 Mcshuggets 9.6% 15827 10-13-18
165 niscool 9.4% 15868 10-13-18
166 Mariobutch 9.4% 15874 10-13-18
167 Irregular Zero 9.2% 15897 10-13-18
168 nuckrieg 9.2% 15900 10-13-18
169 SonicAD 9.1% 15925 10-13-18
170 Shadowthegreat 8.9% 15950 10-13-18
171 superjupi 8.9% 15952 10-13-18
172 SirTobbii 8.9% 15958 10-13-18
173 sonamyfan666 8.6% 16004 10-13-18
174 iarebored 8.6% 16011 10-13-18
175 Powerjohn25 8.6% 16013 10-13-18
176 SaviourDC 8.5% 16018 10-13-18
177 SonicKnuckles 8.5% 16024 10-13-18
178 Werey 8.2% 16076 10-13-18
179 adf 8.1% 16088 10-13-18
180 Megaman EXE565 7.9% 16132 10-13-18
181 ArcticDragon 7.6% 16191 10-13-18
182 Platformer 7.5% 16198 10-13-18
183 timpkmn89 7.4% 16214 10-13-18
184 wheatrich 7.3% 16230 10-13-18
185 FocusSight64 7.3% 16238 10-13-18
186 Swift Hobo 7.3% 16239 10-13-18
187 Rickyman48 7.1% 16278 10-13-18
188 KitsuneYamaro 7.0% 16296 10-13-18
189 Triseena 6.8% 16317 10-13-18
190 Sm4sh 6.8% 16329 10-13-18
191 Destroyer121121 6.5% 16369 10-13-18
192 dShadow 6.5% 16378 10-13-18
193 CyberShadow 6.5% 16382 10-13-18
193 Starlight Sable 6.5% 16382 10-13-18
195 slade23 6.4% 16389 10-13-18
196 IsisDazs 6.3% 16415 10-13-18
197 BlankTH 6.1% 16452 10-13-18
198 Monkeh 6.0% 16460 10-13-18
199 Redd 5.9% 16475 10-13-18
200 Badlex727 5.9% 16480 10-13-18
201 SonicU260 5.8% 16495 10-13-18
202 Richied 5.7% 16510 10-13-18
203 Swinkly 5.7% 16526 10-13-18
204 DaDude 5.6% 16529 10-13-18
205 Crispian 5.6% 16531 10-13-18
206 Vicklaw 5.6% 16536 10-13-18
207 sonicd5 5.6% 16542 10-13-18
208 Zip 5.5% 16548 10-13-18
209 VeritasDL 5.2% 16600 10-13-18
210 ALundstrom10 5.2% 16612 10-13-18
211 tal39h 5.1% 16616 10-13-18
212 Kirbymon30 5.1% 16625 10-13-18
213 soniccoloursunleashed 4.9% 16650 10-13-18
214 Drflash55 4.9% 16664 10-13-18
215 Bass 4.8% 16668 10-13-18
216 neaolas 4.7% 16692 10-13-18
217 superiorsonic 4.7% 16694 10-13-18
218 Yish 4.6% 16705 10-13-18
219 zapp 4.6% 16706 10-13-18
220 UninspiredUsername 4.6% 16715 10-13-18
221 Sonicsuperstar1 4.5% 16727 10-13-18
222 gamefreak1292 4.5% 16736 10-13-18
223 Sora_yx 4.3% 16764 10-13-18
224 Chaos_Overlord 4.1% 16794 10-13-18
225 TakaRikka 4.0% 16813 10-13-18
226 Valfore 4.0% 16817 10-13-18
227 Dage4Aquatic 3.9% 16840 10-13-18
228 ShinigamiMachine 3.8% 16853 10-13-18
229 Regano1000 3.7% 16861 10-13-18
230 MK 3.7% 16870 10-13-18
231 Ace747 3.5% 16895 10-13-18
232 Jua Rever 3.4% 16919 10-13-18
233 Illidan 3.2% 16962 10-13-18
234 HHNNBBHHN 3.1% 16969 10-13-18
235 Brian_pso 3.1% 16972 10-13-18
235 Venick409 3.1% 16972 10-13-18
237 Sithwarrior26 3.1% 16975 10-13-18
238 nman36 3.1% 16977 10-13-18
239 Egor305 3.0% 16998 10-13-18
240 SkyBon 3.0% 16999 10-13-18
241 ingx24 2.9% 17004 10-13-18
242 R3FR4G 2.9% 17008 10-13-18
242 TheChaosEmeraIds 2.9% 17008 10-13-18
244 Nickson98 2.9% 17015 10-13-18
245 dekki1234 2.9% 17016 10-13-18
246 FSSRandomvids 2.8% 17028 10-13-18
247 Fozer 2.8% 17031 10-13-18
248 Colomb_30 2.7% 17035 10-13-18
249 Aiko 2.7% 17046 10-13-18
250 sonic29887 2.7% 17047 10-13-18
251 TheUltraBlur 2.6% 17057 10-13-18
252 1stKirbyever 2.6% 17063 10-13-18
253 TimTH 2.5% 17079 10-13-18
254 Th4tN1nj4Turtl3 2.4% 17101 10-13-18
255 Cort_pso 2.3% 17110 10-13-18
256 ieatatsonic 2.3% 17116 10-13-18
257 Doom-9 2.2% 17124 10-13-18
257 Mariosonic15 2.2% 17124 10-13-18
259 Artie 2.1% 17140 10-13-18
259 MStitomix 2.1% 17140 10-13-18
261 HermitHelmet 2.1% 17145 10-13-18
262 SuperSonic71087 2.0% 17163 10-13-18
263 Got4n 2.0% 17166 10-13-18
264 Questionguy555 1.9% 17175 10-13-18
265 Jose_15 1.9% 17176 10-13-18
266 djmat 1.9% 17189 10-13-18
267 SuperSonicfan9595 1.8% 17196 10-13-18
268 sonicandamy Player Banned 1.7% 17211 10-13-18
269 Heroes_Hater 1.7% 17215 10-13-18
270 LancexExWx 1.7% 17222 10-13-18
271 Paixii 1.7% 17223 10-13-18
272 son1cgu1tar 1.7% 17226 10-13-18
273 Mankster101 1.6% 17241 10-13-18
274 BallzeH 1.6% 17242 10-13-18
275 BecauseWarAnvil 1.5% 17249 10-13-18
276 Jamixesa 1.5% 17254 10-13-18
277 SpiritDragon1995 1.5% 17261 10-13-18
278 Shanekilz 1.4% 17263 10-13-18
279 Crydio 1.4% 17264 10-13-18
280 MarewBFN 1.3% 17281 10-13-18
281 stanski 1.3% 17283 10-13-18
282 Sonique Hedgehog 1.3% 17288 10-13-18
283 Blue Infamy 1.2% 17299 10-13-18
284 p0ker 1.2% 17301 10-13-18
285 ArthurVGCP 1.2% 17303 10-13-18
286 ErrortheCucco 1.2% 17310 10-13-18
287 Rikum22 1.2% 17313 10-13-18
288 Arthas 1.1% 17317 10-13-18
289 sonic1001 1.1% 17321 10-13-18
290 syco1098 1.1% 17328 10-13-18
291 AJSIV 1.1% 17330 10-13-18
291 WingedInsignia 1.1% 17330 10-13-18
293 Sonic the Hedgehod16 1.0% 17333 10-13-18
294 ASINISTERTACO 1.0% 17339 10-13-18
295 sonicfan9 1.0% 17346 10-13-18
296 BlackArmsShadow 0.9% 17353 10-13-18
297 themachoman202 0.9% 17355 10-13-18
298 darkstarblaze 0.9% 17358 10-13-18
299 shadowblast63 Player Banned 0.9% 17361 10-13-18
300 Fivavoa 0.9% 17364 10-13-18
300 MastaToken 0.9% 17364 10-13-18
302 Greham Adelphis 0.9% 17366 10-13-18
302 Mr. Jones 0.9% 17366 10-13-18
304 Ben1502 0.8% 17368 10-13-18
305 arcfx1985 0.8% 17369 10-13-18
306 TommyeAsY 0.8% 17371 10-13-18
307 ptorflaxendrosis 0.8% 17372 10-13-18
308 Gvozdevik 0.8% 17376 10-13-18
308 Knuckles 0.8% 17376 10-13-18
310 FlandreScarlet9999vr 0.8% 17377 10-13-18
311 Zeldocto 0.8% 17379 10-13-18
312 KaM Mark MaK 0.8% 17383 10-13-18
313 BeeAwwb 0.7% 17385 10-13-18
314 ShadouZaHejjihoggu 0.7% 17390 10-13-18
315 Sarger001 0.7% 17395 10-13-18
316 Sonic The Star 0.7% 17398 10-13-18
317 darkersupershadic 0.7% 17399 10-13-18
317 dragondragon18 0.7% 17399 10-13-18
317 Sogeking 0.7% 17399 10-13-18
317 Sonic62 0.7% 17399 10-13-18
321 Shadygamerfreak 0.6% 17406 10-13-18
322 Grady219 0.6% 17407 10-13-18
322 SonicK100 0.6% 17407 10-13-18
324 BioShadow 0.6% 17408 10-13-18
325 Jawaah 0.6% 17413 10-13-18
326 Antek 0.6% 17416 10-13-18
327 Klaus 0.6% 17418 10-13-18
327 SilverK 0.6% 17418 10-13-18
329 SpinDashMaster 0.5% 17421 10-13-18
330 Videogamer123 0.5% 17428 10-13-18
331 oTaiIilLsS 0.4% 17443 10-13-18
332 isaihtb11 0.4% 17445 10-13-18
333 zaktu40 0.4% 17446 10-13-18
334 OhNoes! 0.4% 17447 10-13-18
335 gaara1234 0.4% 17449 10-13-18
335 Mad Andy 0.4% 17449 10-13-18
337 S-MS32X-S 0.4% 17451 10-13-18
338 gamed00d 0.4% 17452 10-13-18
339 Mister_Slick 0.3% 17463 10-13-18
340 Rush Hero 0.3% 17466 10-13-18
340 Sonic06Fan 0.3% 17466 10-13-18
342 ChaosNexuss 0.3% 17467 10-13-18
343 SonicMega167 0.3% 17472 10-13-18
344 Iwannabelink 0.2% 17473 10-13-18
345 sonknuck23 0.2% 17477 10-13-18
346 gamer1245 0.2% 17486 10-13-18
347 DanielTheFalcon 0.2% 17487 10-13-18
348 Burningskull123 0.1% 17491 10-13-18
349 Sonicontherun 0.1% 17502 10-13-18
350 Lil_Dude 0.1% 17507 10-13-18
351 antiwwe 0.0% 17508 10-13-18
352 Tyrouble 0.0% 17510 10-13-18
353 Genuine Hedgehog 0.0% 17511 10-13-18
353 SonataSpinDash 0.0% 17511 10-13-18
355 Cbwade15 0.0% 17514 10-13-18
356 MegabombBlade 0.0% 17525 10-13-18
356 neji_hyuuga 0.0% 17525 10-13-18
356 Over 0.0% 17525 10-13-18
356 sdj6707 Player Banned 0.0% 17525 10-13-18
356 Tran Sonic Fan Player Banned 0.0% 17525 10-13-18

This page is using the New Data Table System. [FUTURE]

Game ID: 3 | Category ID: 10
Hits: 73,477 | Hits This Month: 76 | DB Calls: 21 | Mem Usage: 5.67 MB | Time: 0.15s | Printable

The Sonic Center v3.9
Copyright 2003-2011 by The Sonic Center Team.